Time;durP1;ratioP1;P1;durP2;ratioP2;P2;SDS_P1;SDS_P2;PMS_P1;PMS_P2;Temp;Humidity;BMP_temperature;BMP_pressure;BME280_temperature;BME280_humidity;BME280_pressure;Samples;Min_cycle;Max_cycle;Signal;HPM_P1;HPM_P2
2022/01/05 00:00:37;;;;;;;9.50;4.57;;;;;;;3.47;78.18;99165.50;5061038;28;20477;-63
2022/01/05 00:03:04;;;;;;;5.40;3.50;;;;;;;3.76;77.22;99162.41;5060448;28;20192;-63
2022/01/05 00:05:30;;;;;;;7.03;4.00;;;;;;;3.31;78.51;99162.72;5060959;28;20280;-63
2022/01/05 00:07:55;;;;;;;9.13;3.30;;;;;;;3.35;79.07;99149.03;5060416;28;20420;-63
2022/01/05 00:10:20;;;;;;;6.67;3.90;;;;;;;3.40;77.91;99149.09;5059498;28;20585;-63
2022/01/05 00:12:45;;;;;;;9.73;3.70;;;;;;;3.63;77.36;99146.81;5060637;28;20174;-62
2022/01/05 00:15:11;;;;;;;5.50;3.60;;;;;;;3.36;77.70;99142.19;5060194;28;20173;-62
2022/01/05 00:17:36;;;;;;;6.13;3.60;;;;;;;3.46;77.46;99145.72;5060225;28;20181;-62
2022/01/05 00:20:03;;;;;;;7.07;3.50;;;;;;;3.45;78.16;99141.41;5060736;28;20166;-63
2022/01/05 00:22:29;;;;;;;11.27;4.20;;;;;;;3.37;78.33;99139.63;5060128;28;20461;-62
2022/01/05 00:24:54;;;;;;;6.30;3.60;;;;;;;3.65;77.89;99134.81;5068911;28;20427;-63
2022/01/05 00:27:19;;;;;;;4.53;3.20;;;;;;;3.70;77.06;99137.44;5080499;28;20518;-62
2022/01/05 00:29:44;;;;;;;9.80;4.20;;;;;;;3.22;78.28;99131.72;5081010;28;20216;-68
2022/01/05 00:32:10;;;;;;;7.83;3.60;;;;;;;3.36;77.54;99137.88;5085816;28;20196;-64
2022/01/05 00:34:36;;;;;;;8.33;4.13;;;;;;;3.61;77.26;99127.03;5082623;28;20439;-64
2022/01/05 00:37:02;;;;;;;5.73;3.53;;;;;;;3.31;77.38;99131.81;5084644;28;20176;-62
2022/01/05 00:39:27;;;;;;;8.47;3.50;;;;;;;3.29;77.54;99124.91;5081141;28;20496;-63
2022/01/05 00:41:53;;;;;;;9.13;3.80;;;;;;;3.29;78.66;99127.47;5079923;28;20260;-63
2022/01/05 00:44:19;;;;;;;8.37;4.03;;;;;;;3.31;77.70;99118.94;5079912;28;20535;-63
2022/01/05 00:46:44;;;;;;;9.13;3.60;;;;;;;3.11;78.18;99117.81;5079837;28;20234;-63
2022/01/05 00:49:10;;;;;;;7.50;3.77;;;;;;;3.31;77.92;99124.06;5079777;28;20445;-63
2022/01/05 00:51:35;;;;;;;4.97;3.20;;;;;;;3.37;77.23;99126.75;5079705;28;20220;-63
2022/01/05 00:54:00;;;;;;;11.13;4.23;;;;;;;3.34;77.05;99126.72;5078962;28;20225;-63
2022/01/05 00:56:26;;;;;;;8.60;3.43;;;;;;;3.11;78.34;99121.25;5079968;28;20182;-63
2022/01/05 00:58:51;;;;;;;9.43;3.37;;;;;;;3.06;78.53;99122.91;5079528;28;20537;-63
2022/01/05 01:01:16;;;;;;;6.50;3.50;;;;;;;3.51;77.72;99134.63;5079629;28;20180;-64
2022/01/05 01:03:42;;;;;;;8.80;3.97;;;;;;;3.53;76.88;99120.06;5079480;28;20183;-62
2022/01/05 01:06:07;;;;;;;5.53;3.47;;;;;;;3.61;76.96;99124.44;5079335;28;20183;-64
2022/01/05 01:08:32;;;;;;;10.60;3.83;;;;;;;3.40;77.00;99119.88;5079134;28;20488;-63
2022/01/05 01:10:58;;;;;;;6.83;3.40;;;;;;;3.12;78.56;99117.81;5079546;28;20179;-63
2022/01/05 01:13:23;;;;;;;6.07;3.37;;;;;;;3.10;78.40;99128.94;5079049;28;20177;-63
2022/01/05 01:15:50;;;;;;;6.83;3.70;;;;;;;3.16;78.20;99117.03;5079499;28;20176;-63
2022/01/05 01:18:15;;;;;;;13.53;3.70;;;;;;;3.33;78.07;99109.53;5079678;28;20172;-64
2022/01/05 01:20:41;;;;;;;6.90;3.73;;;;;;;3.06;78.66;99119.44;5079157;28;20423;-64
2022/01/05 01:23:07;;;;;;;7.03;3.50;;;;;;;3.03;79.26;99118.56;5078841;28;20223;-62
2022/01/05 01:25:33;;;;;;;13.03;4.07;;;;;;;3.18;78.65;99109.31;5065615;28;20442;-62
2022/01/05 01:27:59;;;;;;;9.83;3.43;;;;;;;3.09;79.27;99106.63;5059000;28;20416;-63
2022/01/05 01:30:24;;;;;;;6.70;3.80;;;;;;;3.13;79.03;99108.41;5058835;28;20250;-62
2022/01/05 01:32:49;;;;;;;5.63;3.50;;;;;;;3.25;78.83;99117.97;5058836;28;20193;-62
2022/01/05 01:35:15;;;;;;;5.83;4.27;;;;;;;2.92;79.79;99112.41;5058833;28;20232;-63
2022/01/05 01:37:40;;;;;;;10.23;3.97;;;;;;;3.27;79.53;99100.84;5058885;28;20192;-63
2022/01/05 01:40:06;;;;;;;6.90;3.50;;;;;;;2.91;80.81;99113.25;5059062;28;20589;-64
2022/01/05 01:42:32;;;;;;;6.63;3.73;;;;;;;2.86;80.38;99114.91;5057851;28;20219;-64
2022/01/05 01:44:57;;;;;;;5.13;3.77;;;;;;;2.87;80.67;99106.34;5058822;28;20399;-64
2022/01/05 01:47:23;;;;;;;6.50;3.87;;;;;;;7.23;79.66;99085.47;5058939;28;20229;-62
2022/01/05 01:49:48;;;;;;;5.80;3.70;;;;;;;8.58;79.59;99069.94;5058230;28;20582;-60
2022/01/05 01:52:14;;;;;;;11.10;4.97;;;;;;;7.16;75.05;99088.94;5058270;28;20189;-61
2022/01/05 01:54:39;;;;;;;13.43;3.80;;;;;;;6.20;72.05;99091.66;5073936;28;20482;-61
2022/01/05 01:57:05;;;;;;;4.57;3.60;;;;;;;9.35;69.45;99061.31;5078260;28;20185;-61
2022/01/05 01:59:30;;;;;;;7.07;3.90;;;;;;;5.53;68.65;99088.03;5077715;28;20172;-65
2022/01/05 02:01:56;;;;;;;9.53;4.23;;;;;;;4.36;74.22;99078.75;5077837;28;20699;-63
2022/01/05 02:04:21;;;;;;;11.03;5.63;;;;;;;3.90;75.73;99086.09;5078431;28;20168;-63
2022/01/05 02:06:47;;;;;;;4.93;3.33;;;;;;;3.81;75.87;99091.16;5078194;28;20257;-64
2022/01/05 02:09:13;;;;;;;8.10;4.27;;;;;;;3.80;75.94;99092.00;5079109;28;20239;-63
2022/01/05 02:11:39;;;;;;;14.77;4.40;;;;;;;3.76;77.22;99092.81;5078229;28;20419;-64
2022/01/05 02:14:04;;;;;;;12.70;3.93;;;;;;;3.25;78.41;99092.22;5078708;28;20291;-63
2022/01/05 02:16:32;;;;;;;16.37;5.00;;;;;;;3.13;79.48;99088.66;5078301;28;20494;-63
2022/01/05 02:18:58;;;;;;;8.00;3.50;;;;;;;3.31;78.04;99093.16;5078387;28;20169;-63
2022/01/05 02:21:25;;;;;;;9.83;4.20;;;;;;;3.35;77.75;99094.09;5078005;28;20873;-63
2022/01/05 02:23:50;;;;;;;7.00;3.30;;;;;;;3.29;78.94;99083.69;5078195;28;20676;-63
2022/01/05 02:26:16;;;;;;;7.03;3.93;;;;;;;3.40;78.18;99086.41;5078348;28;20419;-63
2022/01/05 02:28:42;;;;;;;9.60;4.37;;;;;;;3.03;78.99;99079.06;5078692;28;20460;-63
2022/01/05 02:31:08;;;;;;;7.60;3.53;;;;;;;3.26;77.65;99081.97;5077395;28;20411;-63
2022/01/05 02:33:33;;;;;;;6.90;3.93;;;;;;;3.36;77.66;99068.34;5077077;28;20194;-63
2022/01/05 02:35:59;;;;;;;11.63;4.77;;;;;;;3.36;78.15;99065.75;5078432;28;20190;-64
2022/01/05 02:38:24;;;;;;;6.67;3.37;;;;;;;3.24;78.80;99060.47;5078098;28;20251;-63
2022/01/05 02:40:50;;;;;;;6.53;5.17;;;;;;;3.34;76.66;99072.63;5078269;28;20187;-63
2022/01/05 02:43:16;;;;;;;8.47;3.47;;;;;;;3.42;76.83;99075.25;5077526;28;20165;-64
2022/01/05 02:45:41;;;;;;;15.23;3.90;;;;;;;3.19;77.65;99085.28;5078064;28;20678;-64
2022/01/05 02:48:07;;;;;;;5.97;3.10;;;;;;;3.36;77.38;99082.94;5078148;28;20562;-64
2022/01/05 02:50:33;;;;;;;7.40;4.00;;;;;;;3.17;78.35;99069.84;5078654;28;20269;-63
2022/01/05 02:52:58;;;;;;;6.03;3.50;;;;;;;3.52;75.97;99076.25;5076921;28;20177;-64
2022/01/05 02:55:23;;;;;;;9.33;3.70;;;;;;;3.22;76.73;99077.63;5077363;28;20181;-64
2022/01/05 02:57:48;;;;;;;9.20;3.90;;;;;;;3.31;77.42;99077.72;5081007;28;20169;-64
2022/01/05 03:00:16;;;;;;;11.40;3.83;;;;;;;3.30;77.84;99078.59;5083860;28;20173;-65
2022/01/05 03:02:42;;;;;;;7.87;3.40;;;;;;;3.28;76.72;99075.13;5083159;28;20238;-65
2022/01/05 03:05:08;;;;;;;11.17;4.30;;;;;;;3.23;76.85;99069.03;5082851;28;20431;-63
2022/01/05 03:07:39;;;;;;;10.10;3.73;;;;;;;3.35;78.14;99068.31;5078247;28;20449;-63
2022/01/05 03:10:07;;;;;;;6.53;3.87;;;;;;;3.40;76.90;99065.78;5078188;28;20473;-62
2022/01/05 03:12:32;;;;;;;9.70;3.60;;;;;;;3.12;77.01;99058.59;5077517;28;20426;-62
2022/01/05 03:14:57;;;;;;;13.07;3.60;;;;;;;3.13;76.30;99057.75;5076979;28;20777;-63
2022/01/05 03:17:23;;;;;;;10.43;3.50;;;;;;;3.31;76.28;99049.38;5078813;28;20177;-64
2022/01/05 03:19:48;;;;;;;9.07;3.63;;;;;;;3.40;75.74;99051.22;5081046;28;20177;-63
2022/01/05 03:22:13;;;;;;;7.67;3.77;;;;;;;3.12;76.27;99047.44;5081239;28;20177;-63
2022/01/05 03:24:38;;;;;;;9.77;3.87;;;;;;;3.20;75.80;99043.25;5081446;28;20169;-63
2022/01/05 03:27:04;;;;;;;5.53;3.70;;;;;;;3.39;76.02;99038.31;5081096;28;20177;-64
2022/01/05 03:29:30;;;;;;;4.83;3.00;;;;;;;3.47;75.57;99041.84;5081055;28;20201;-63
2022/01/05 03:31:55;;;;;;;8.10;3.77;;;;;;;3.20;75.78;99030.38;5081019;28;20211;-63
2022/01/05 03:34:21;;;;;;;6.87;3.40;;;;;;;3.34;75.29;99034.00;5081429;28;20204;-63
2022/01/05 03:36:46;;;;;;;7.77;3.47;;;;;;;3.17;75.15;99035.50;5080977;28;20172;-63
2022/01/05 03:39:12;;;;;;;13.97;3.90;;;;;;;3.26;74.32;99038.19;5081177;28;20246;-63
2022/01/05 03:41:37;;;;;;;9.73;3.63;;;;;;;3.33;75.26;99037.41;5081445;28;20404;-63
2022/01/05 03:44:04;;;;;;;12.10;3.47;;;;;;;3.29;76.20;99038.22;5080818;28;20227;-63
2022/01/05 03:46:29;;;;;;;6.97;3.60;;;;;;;3.53;75.22;99047.06;5080887;28;20234;-63
2022/01/05 03:48:54;;;;;;;7.90;4.23;;;;;;;3.00;74.68;99046.47;5081426;28;20399;-64
2022/01/05 03:51:20;;;;;;;10.00;3.60;;;;;;;3.21;75.97;99042.41;5080765;28;20212;-63
2022/01/05 03:53:45;;;;;;;7.50;3.23;;;;;;;3.22;74.86;99041.56;5079895;28;20610;-63
2022/01/05 03:56:10;;;;;;;8.80;3.93;;;;;;;3.07;76.08;99042.22;5081205;28;20489;-62
2022/01/05 03:58:36;;;;;;;13.00;4.30;;;;;;;3.28;75.01;99046.78;5080126;28;20451;-64
2022/01/05 04:01:01;;;;;;;11.43;3.90;;;;;;;3.31;74.63;99036.50;5080892;28;20188;-65
2022/01/05 04:03:26;;;;;;;6.20;3.00;;;;;;;3.30;75.32;99028.75;5080979;28;20169;-63
2022/01/05 04:05:51;;;;;;;7.47;3.00;;;;;;;3.30;75.60;99039.94;5080530;28;20196;-64
2022/01/05 04:08:17;;;;;;;7.93;3.33;;;;;;;3.52;73.98;99028.16;5080359;28;20165;-65
2022/01/05 04:10:42;;;;;;;11.00;4.50;;;;;;;3.21;75.65;99034.69;5080629;28;20475;-64
2022/01/05 04:13:07;;;;;;;13.57;3.63;;;;;;;3.32;76.69;99033.09;5080250;28;20234;-64
2022/01/05 04:15:33;;;;;;;12.67;3.70;;;;;;;3.27;76.22;99037.31;5080114;28;20191;-64
2022/01/05 04:17:58;;;;;;;6.70;3.43;;;;;;;3.33;75.37;99034.81;5080766;28;20171;-64
2022/01/05 04:20:24;;;;;;;11.03;3.70;;;;;;;3.70;74.75;99026.63;5080308;28;20172;-63
2022/01/05 04:22:49;;;;;;;6.30;3.30;;;;;;;3.29;75.86;99027.03;5079076;28;20177;-63
2022/01/05 04:25:14;;;;;;;6.53;3.47;;;;;;;3.28;74.55;99033.91;5080641;28;20176;-63
2022/01/05 04:27:40;;;;;;;5.47;3.37;;;;;;;3.29;75.58;99038.22;5080016;28;20177;-64
2022/01/05 04:30:06;;;;;;;10.83;3.73;;;;;;;2.91;76.72;99043.78;5079103;28;20236;-63
2022/01/05 04:32:31;;;;;;;8.83;3.27;;;;;;;3.19;75.80;99034.69;5079337;28;20582;-62
2022/01/05 04:34:57;;;;;;;5.87;3.40;;;;;;;3.23;75.71;99027.84;5080023;28;20421;-63
2022/01/05 04:37:23;;;;;;;8.30;3.70;;;;;;;3.44;74.82;99036.66;5079924;28;20169;-63
2022/01/05 04:39:48;;;;;;;11.33;3.70;;;;;;;3.54;75.85;99028.16;5080255;28;20165;-63
2022/01/05 04:42:13;;;;;;;9.27;3.43;;;;;;;3.35;75.60;99027.97;5079593;28;20187;-63
2022/01/05 04:44:39;;;;;;;7.60;3.73;;;;;;;3.56;75.56;99017.88;5079584;28;20180;-63
2022/01/05 04:47:04;;;;;;;6.07;3.77;;;;;;;3.79;74.26;99026.72;5080357;28;20169;-63
2022/01/05 04:49:29;;;;;;;8.47;3.63;;;;;;;3.44;74.78;99027.22;5079498;28;20373;-63
2022/01/05 04:51:54;;;;;;;8.17;3.57;;;;;;;3.36;76.00;99028.84;5079419;28;20195;-63
2022/01/05 04:54:20;;;;;;;6.83;3.67;;;;;;;3.63;74.91;99033.41;5079251;28;20358;-64
2022/01/05 04:56:45;;;;;;;9.13;3.50;;;;;;;3.76;74.22;99028.38;5079511;28;20200;-62
2022/01/05 04:59:11;;;;;;;8.57;3.57;;;;;;;3.83;75.61;99022.44;5079569;28;20237;-63
2022/01/05 05:01:36;;;;;;;11.53;4.53;;;;;;;3.71;73.31;99034.38;5080299;28;20173;-64
2022/01/05 05:04:02;;;;;;;8.30;3.40;;;;;;;3.56;74.28;99036.78;5082254;28;20446;-64
2022/01/05 05:06:27;;;;;;;12.87;4.37;;;;;;;3.75;73.36;99035.25;5080525;28;20179;-64
2022/01/05 05:08:53;;;;;;;8.10;4.70;;;;;;;4.00;74.24;99036.34;5079188;28;20173;-64
2022/01/05 05:11:18;;;;;;;9.87;3.43;;;;;;;4.20;72.86;99036.50;5079266;28;20486;-62
2022/01/05 05:13:43;;;;;;;9.60;4.20;;;;;;;3.96;71.60;99032.00;5078697;28;20176;-64
2022/01/05 05:16:08;;;;;;;5.80;3.90;;;;;;;3.86;71.90;99043.09;5079131;28;20268;-63
2022/01/05 05:18:34;;;;;;;7.33;3.57;;;;;;;4.01;72.67;99034.63;5079097;28;20210;-63
2022/01/05 05:20:59;;;;;;;5.53;3.90;;;;;;;3.84;72.60;99039.63;5079540;28;20234;-63
2022/01/05 05:23:25;;;;;;;7.50;3.70;;;;;;;3.81;72.70;99037.03;5078796;28;20173;-63
2022/01/05 05:25:50;;;;;;;9.43;3.87;;;;;;;3.93;73.83;99029.41;5078844;28;20527;-62
2022/01/05 05:28:16;;;;;;;11.23;4.40;;;;;;;4.30;72.42;99034.00;5079317;28;20433;-63
2022/01/05 05:30:41;;;;;;;5.93;3.50;;;;;;;3.93;73.06;99024.25;5078722;28;20589;-64
2022/01/05 05:33:06;;;;;;;7.23;3.20;;;;;;;3.90;73.54;99037.13;5078581;28;20216;-63
2022/01/05 05:35:32;;;;;;;9.20;3.80;;;;;;;3.69;74.93;99032.63;5079279;28;20243;-64
2022/01/05 05:37:57;;;;;;;7.53;3.33;;;;;;;4.13;73.94;99031.31;5078775;28;20177;-64
2022/01/05 05:40:23;;;;;;;7.40;3.00;;;;;;;4.01;73.34;99035.50;5078640;28;20271;-64
2022/01/05 05:42:49;;;;;;;11.00;3.30;;;;;;;3.86;74.49;99043.09;5079128;28;20164;-64
2022/01/05 05:45:14;;;;;;;9.30;3.70;;;;;;;4.25;73.48;99026.22;5078775;28;20479;-64
2022/01/05 05:47:40;;;;;;;8.67;3.23;;;;;;;4.14;76.14;99040.75;5078688;28;20263;-65
2022/01/05 05:50:05;;;;;;;5.63;2.93;;;;;;;3.98;75.27;99032.91;5078935;28;20203;-63
2022/01/05 05:52:31;;;;;;;6.30;3.13;;;;;;;3.62;76.68;99041.16;5078316;28;20165;-63
2022/01/05 05:54:56;;;;;;;7.43;4.33;;;;;;;3.51;77.14;99023.84;5078269;28;20225;-64
2022/01/05 05:57:22;;;;;;;11.83;4.60;;;;;;;3.81;75.76;99042.19;5079101;28;20176;-64
2022/01/05 05:59:48;;;;;;;7.57;3.40;;;;;;;3.82;76.08;99026.72;5088422;28;20171;-63
2022/01/05 06:02:13;;;;;;;14.63;3.90;;;;;;;3.90;76.50;99034.53;5093625;28;20407;-65
2022/01/05 06:04:38;;;;;;;7.60;3.80;;;;;;;3.78;76.84;99029.28;5092548;28;20157;-63
2022/01/05 06:07:04;;;;;;;10.13;3.83;;;;;;;3.77;77.35;99037.84;5085906;28;20183;-64
2022/01/05 06:09:29;;;;;;;9.67;4.30;;;;;;;3.76;76.99;99034.41;5078757;28;20459;-63
2022/01/05 06:11:54;;;;;;;9.23;4.60;;;;;;;3.56;76.60;99044.53;5079193;28;20217;-64
2022/01/05 06:14:19;;;;;;;11.70;4.57;;;;;;;3.99;76.55;99033.75;5078158;28;20168;-63
2022/01/05 06:16:45;;;;;;;9.77;4.37;;;;;;;3.64;76.40;99042.00;5078347;28;20175;-63
2022/01/05 06:19:10;;;;;;;11.13;4.30;;;;;;;3.68;77.84;99041.19;5078639;28;20227;-63
2022/01/05 06:21:35;;;;;;;10.50;3.73;;;;;;;3.56;77.49;99041.06;5078195;28;20471;-64
2022/01/05 06:24:01;;;;;;;6.27;3.97;;;;;;;3.86;77.78;99043.09;5078114;28;20267;-63
2022/01/05 06:26:27;;;;;;;10.63;3.80;;;;;;;3.62;77.06;99036.84;5078681;28;20173;-63
2022/01/05 06:28:52;;;;;;;10.37;4.17;;;;;;;3.99;76.04;99036.31;5078056;28;20238;-63
2022/01/05 06:31:17;;;;;;;11.23;5.23;;;;;;;3.79;76.07;99037.03;5078057;28;20177;-63
2022/01/05 06:33:43;;;;;;;10.97;4.47;;;;;;;4.05;75.76;99032.09;5078568;28;20193;-63
2022/01/05 06:36:08;;;;;;;11.87;4.10;;;;;;;4.23;75.65;99040.81;5078212;28;20184;-67
2022/01/05 06:38:33;;;;;;;9.97;4.13;;;;;;;4.26;75.40;99040.84;5078572;28;20220;-63
2022/01/05 06:40:59;;;;;;;7.73;3.93;;;;;;;3.84;76.10;99042.22;5078715;28;20203;-64
2022/01/05 06:43:24;;;;;;;8.63;4.10;;;;;;;4.29;74.73;99040.00;5077836;28;20303;-64
2022/01/05 06:45:50;;;;;;;7.67;4.00;;;;;;;4.47;74.38;99049.59;5078213;28;20169;-62
2022/01/05 06:48:15;;;;;;;8.93;4.13;;;;;;;4.17;76.18;99044.22;5078222;28;20161;-63
2022/01/05 06:50:40;;;;;;;9.13;4.00;;;;;;;4.03;75.09;99043.22;5077961;28;20208;-64
2022/01/05 06:53:06;;;;;;;8.37;4.20;;;;;;;4.04;74.08;99040.66;5080094;28;20209;-64
2022/01/05 06:55:31;;;;;;;9.37;3.73;;;;;;;4.21;73.70;99050.28;5082369;28;20172;-64
2022/01/05 06:57:56;;;;;;;7.97;4.40;;;;;;;4.04;74.64;99061.28;5082036;28;20207;-64
2022/01/05 07:00:23;;;;;;;10.00;4.10;;;;;;;4.49;72.87;99059.09;5081639;28;20177;-63
2022/01/05 07:02:49;;;;;;;8.70;3.97;;;;;;;4.34;73.60;99057.25;5082120;28;20165;-63
2022/01/05 07:05:15;;;;;;;8.53;3.87;;;;;;;3.92;74.95;99058.59;5081698;28;20422;-64
2022/01/05 07:07:40;;;;;;;12.57;4.50;;;;;;;4.00;74.45;99059.53;5080953;28;20797;-64
2022/01/05 07:10:07;;;;;;;11.47;4.73;;;;;;;4.30;74.27;99052.94;5082013;28;20205;-64
2022/01/05 07:12:33;;;;;;;7.53;3.93;;;;;;;4.25;72.62;99044.28;5081208;28;20183;-64
2022/01/05 07:14:58;;;;;;;8.87;3.80;;;;;;;4.06;73.94;99048.44;5081375;28;20682;-64
2022/01/05 07:17:23;;;;;;;13.00;3.83;;;;;;;4.50;72.54;99054.78;5081914;28;20407;-63
2022/01/05 07:19:49;;;;;;;7.03;3.90;;;;;;;4.32;74.00;99058.09;5081471;28;20184;-63
2022/01/05 07:22:14;;;;;;;10.97;4.40;;;;;;;4.35;72.11;99056.38;5081126;28;20200;-63
2022/01/05 07:24:39;;;;;;;9.47;4.00;;;;;;;4.09;73.33;99053.63;5081887;28;20203;-65
2022/01/05 07:27:05;;;;;;;18.07;4.30;;;;;;;4.54;73.79;99056.53;5081847;28;20199;-63
2022/01/05 07:29:30;;;;;;;6.77;3.73;;;;;;;4.03;74.44;99061.28;5081148;28;20209;-63
2022/01/05 07:31:55;;;;;;;8.23;3.70;;;;;;;4.27;74.85;99057.19;5081623;28;20176;-63
2022/01/05 07:34:21;;;;;;;7.93;3.73;;;;;;;4.04;75.10;99061.28;5080299;28;20478;-64
2022/01/05 07:36:46;;;;;;;5.67;3.73;;;;;;;3.71;76.77;99062.72;5081075;28;20172;-64
2022/01/05 07:39:11;;;;;;;7.70;3.40;;;;;;;3.92;76.15;99061.19;5081823;28;20542;-64
2022/01/05 07:41:37;;;;;;;7.17;3.50;;;;;;;3.93;75.83;99068.06;5081082;28;20169;-63
2022/01/05 07:44:04;;;;;;;8.00;3.93;;;;;;;3.84;75.95;99053.41;5080800;28;20234;-64
2022/01/05 07:46:29;;;;;;;11.73;5.87;;;;;;;4.00;75.45;99061.25;5081547;28;20177;-64
2022/01/05 07:48:55;;;;;;;7.43;3.77;;;;;;;4.19;76.02;99063.16;5081032;28;20661;-64
2022/01/05 07:51:20;;;;;;;9.73;3.90;;;;;;;4.59;74.44;99054.84;5080863;28;20176;-64
2022/01/05 07:53:46;;;;;;;7.10;4.03;;;;;;;4.56;73.16;99054.84;5080648;28;20225;-64
2022/01/05 07:56:11;;;;;;;7.80;3.80;;;;;;;4.42;73.75;99059.03;5080656;28;20248;-63
2022/01/05 07:58:37;;;;;;;13.23;4.80;;;;;;;4.69;72.49;99042.84;5080833;28;20612;-63
2022/01/05 08:01:03;;;;;;;5.77;3.70;;;;;;;4.85;72.66;99042.09;5080531;28;20596;-65
2022/01/05 08:03:32;;;;;;;10.77;4.37;;;;;;;6.99;77.54;99038.03;5078826;28;20502;-61
2022/01/05 08:05:58;;;;;;;8.73;4.30;;;;;;;6.35;67.92;99039.03;5080884;28;20848;-62
2022/01/05 08:08:23;;;;;;;9.90;4.53;;;;;;;7.91;62.95;99041.00;5080520;28;20418;-63
2022/01/05 08:10:48;;;;;;;8.30;4.57;;;;;;;6.40;67.93;99048.50;5080242;28;20205;-54
2022/01/05 08:13:13;;;;;;;5.87;4.23;;;;;;;7.72;65.67;99046.31;5080682;28;20481;-53
2022/01/05 08:15:39;;;;;;;8.13;3.93;;;;;;;7.93;69.92;99034.94;5080355;28;20219;-58
2022/01/05 08:18:04;;;;;;;10.87;4.07;;;;;;;7.71;63.17;99046.31;5080417;28;20168;-56
2022/01/05 08:20:29;;;;;;;7.57;3.90;;;;;;;8.50;63.07;99027.59;5080571;28;20169;-53
2022/01/05 08:22:55;;;;;;;9.07;4.07;;;;;;;8.26;67.14;99034.69;5080043;28;20200;-53
2022/01/05 08:25:20;;;;;;;11.03;4.30;;;;;;;7.48;67.13;99051.66;5079998;28;20168;-67
2022/01/05 08:27:46;;;;;;;11.10;4.33;;;;;;;4.58;72.65;99060.84;5080718;28;20181;-64
2022/01/05 08:30:16;;;;;;;6.80;4.20;;;;;;;4.32;73.87;99066.69;5079929;28;20243;-64
2022/01/05 08:32:42;;;;;;;6.23;3.57;;;;;;;3.73;76.89;99079.91;5079716;28;20458;-62
2022/01/05 08:35:08;;;;;;;6.57;3.70;;;;;;;4.35;75.73;99068.44;5080453;28;20404;-62
2022/01/05 08:37:33;;;;;;;13.43;4.60;;;;;;;4.09;75.98;99075.97;5079870;28;20527;-62
2022/01/05 08:39:58;;;;;;;8.53;4.50;;;;;;;4.14;77.30;99087.16;5079856;28;20192;-62
2022/01/05 08:42:23;;;;;;;9.80;4.60;;;;;;;3.84;78.79;99079.19;5080428;28;20425;-63
2022/01/05 08:44:49;;;;;;;12.70;4.60;;;;;;;4.20;78.16;99079.50;5079704;28;20177;-62
2022/01/05 08:47:14;;;;;;;8.67;4.90;;;;;;;3.85;78.10;99082.59;5079790;28;20173;-63
2022/01/05 08:49:39;;;;;;;9.93;4.90;;;;;;;3.77;79.62;99085.09;5080101;28;20185;-62
2022/01/05 08:52:05;;;;;;;7.93;4.70;;;;;;;3.57;82.83;99082.31;5079521;28;20181;-62
2022/01/05 08:54:30;;;;;;;8.03;4.97;;;;;;;3.56;80.98;99098.63;5079228;28;20232;-61
2022/01/05 08:56:57;;;;;;;10.23;5.87;;;;;;;3.77;81.32;99091.97;5062272;28;20443;-61
2022/01/05 08:59:22;;;;;;;18.17;4.70;;;;;;;3.41;81.76;99107.06;5059480;28;20173;-62
2022/01/05 09:01:47;;;;;;;15.00;6.23;;;;;;;3.77;81.59;99087.69;5059526;28;20499;-64
2022/01/05 09:04:13;;;;;;;12.63;7.03;;;;;;;3.82;81.55;99098.06;5063085;28;20196;-62
2022/01/05 09:06:38;;;;;;;10.60;6.47;;;;;;;3.63;82.49;99095.28;5065049;28;20454;-62
2022/01/05 09:09:04;;;;;;;9.50;7.10;;;;;;;3.45;83.65;99100.19;5062445;28;20182;-62
2022/01/05 09:11:29;;;;;;;11.20;5.30;;;;;;;3.34;84.11;99095.81;5060287;28;20547;-63
2022/01/05 09:13:55;;;;;;;10.43;6.50;;;;;;;3.70;83.18;99091.06;5060012;28;20402;-63
2022/01/05 09:16:20;;;;;;;8.17;5.73;;;;;;;3.93;82.47;99083.53;5060077;28;20174;-62
2022/01/05 09:18:46;;;;;;;13.83;7.93;;;;;;;3.86;82.45;99084.34;5059625;28;20174;-61
2022/01/05 09:21:11;;;;;;;8.20;6.70;;;;;;;3.68;82.17;99091.03;5059390;28;20481;-63
2022/01/05 09:23:37;;;;;;;10.73;6.30;;;;;;;3.87;81.00;99086.09;5058927;28;20184;-62
2022/01/05 09:26:03;;;;;;;12.40;7.77;;;;;;;3.98;80.34;99087.03;5059034;28;20506;-61
2022/01/05 09:28:28;;;;;;;10.80;6.70;;;;;;;3.87;79.88;99088.66;5058905;28;20177;-62
2022/01/05 09:30:53;;;;;;;14.43;6.97;;;;;;;4.23;79.03;99071.78;5058846;28;20211;-62
2022/01/05 09:33:19;;;;;;;10.20;6.57;;;;;;;4.23;78.40;99076.94;5058014;28;20288;-63
2022/01/05 09:35:46;;;;;;;9.87;6.33;;;;;;;4.14;78.74;99080.31;5058812;28;20204;-62
2022/01/05 09:38:34;;;;;;;12.37;7.30;;;;;;;4.50;78.04;99072.84;5058558;28;20178;-63
2022/01/05 09:43:51;;;;;;;9.30;7.37;;;;;;;4.28;78.29;99077.84;5058067;28;20419;-62
2022/01/05 09:46:25;;;;;;;10.97;7.67;;;;;;;4.20;78.55;99071.75;5058425;28;20420;-60
2022/01/05 09:49:11;;;;;;;12.70;7.17;;;;;;;4.42;78.25;99085.69;5057843;28;20427;-61
2022/01/05 09:51:41;;;;;;;11.00;7.40;;;;;;;4.53;77.88;99088.34;5057997;28;20416;-61
2022/01/05 09:54:06;;;;;;;13.00;8.23;;;;;;;4.15;79.09;99083.75;5058057;28;20467;-60
2022/01/05 09:56:33;;;;;;;11.73;7.63;;;;;;;4.49;78.16;99084.00;5058356;28;20899;-61
2022/01/05 09:59:01;;;;;;;11.50;7.50;;;;;;;4.45;78.19;99066.78;5058286;28;20173;-62
2022/01/05 10:01:29;;;;;;;9.90;8.07;;;;;;;4.32;78.08;99076.16;5058573;28;20666;-60
2022/01/05 10:03:54;;;;;;;9.80;7.93;;;;;;;4.57;76.95;99079.78;5058249;28;20390;-62
2022/01/05 10:06:19;;;;;;;12.40;7.60;;;;;;;4.55;77.81;99068.59;5058352;28;20689;-62
2022/01/05 10:08:45;;;;;;;11.00;7.23;;;;;;;4.57;77.50;99074.59;5058094;28;20542;-62
2022/01/05 10:11:11;;;;;;;13.37;7.90;;;;;;;4.47;76.82;99076.25;5057979;28;20216;-62
2022/01/05 10:13:36;;;;;;;9.20;7.80;;;;;;;4.28;78.48;99071.84;5057793;28;20420;-62
2022/01/05 10:16:01;;;;;;;13.17;8.10;;;;;;;4.83;76.58;99064.47;5058198;28;20174;-62
2022/01/05 10:18:38;;;;;;;12.17;8.13;;;;;;;4.46;77.91;99074.53;5058001;28;20173;-62
2022/01/05 10:21:06;;;;;;;14.30;9.00;;;;;;;4.68;79.13;99064.34;5057985;28;20169;-62
2022/01/05 10:23:40;;;;;;;9.90;7.87;;;;;;;4.68;78.16;99067.81;5057940;28;20462;-63
2022/01/05 10:26:29;;;;;;;9.90;8.90;;;;;;;4.62;77.77;99072.06;5057587;28;20439;-62
2022/01/05 10:29:00;;;;;;;11.40;8.47;;;;;;;4.76;77.95;99077.31;5057487;28;20809;-63
2022/01/05 10:31:34;;;;;;;14.33;9.20;;;;;;;4.99;77.16;99069.69;5057079;28;20871;-61
2022/01/05 10:34:13;;;;;;;13.80;9.83;;;;;;;5.13;75.89;99074.94;5057624;28;20410;-62
2022/01/05 10:36:52;;;;;;;13.43;8.70;;;;;;;5.35;75.65;99060.41;5057497;28;20419;-62
2022/01/05 10:39:20;;;;;;;9.10;7.90;;;;;;;5.13;75.54;99074.94;5057639;28;20466;-63
2022/01/05 10:41:46;;;;;;;10.67;6.97;;;;;;;4.72;77.64;99074.72;5057496;28;20720;-63
2022/01/05 10:44:14;;;;;;;12.70;7.87;;;;;;;4.74;77.33;99077.31;5057536;28;20412;-62
2022/01/05 10:46:49;;;;;;;11.40;7.70;;;;;;;4.68;76.77;99067.81;5057138;28;20391;-60
2022/01/05 10:49:38;;;;;;;12.30;7.57;;;;;;;4.94;76.40;99071.38;5057349;28;20500;-60
2022/01/05 10:52:22;;;;;;;8.77;7.00;;;;;;;4.94;76.52;99067.09;5057480;28;20546;-62
2022/01/05 10:54:48;;;;;;;8.53;7.00;;;;;;;5.18;76.02;99073.22;5057506;28;20491;-61
2022/01/05 10:57:14;;;;;;;8.73;7.20;;;;;;;5.40;75.84;99067.31;5057458;28;20452;-60
2022/01/05 10:59:44;;;;;;;8.27;7.27;;;;;;;5.26;75.95;99057.78;5056743;28;20470;-60
2022/01/05 11:02:23;;;;;;;11.17;6.93;;;;;;;5.30;75.74;99060.38;5057637;28;20196;-62
2022/01/05 11:04:49;;;;;;;7.67;6.20;;;;;;;4.86;77.67;99071.38;5057714;28;20470;-63
2022/01/05 11:07:19;;;;;;;10.13;5.80;;;;;;;4.95;77.65;99068.84;5057625;28;20416;-62
2022/01/05 11:09:53;;;;;;;7.00;6.10;;;;;;;4.96;78.58;99065.38;5057226;28;20495;-62
2022/01/05 11:12:18;;;;;;;8.83;5.73;;;;;;;4.90;78.54;99060.19;5060930;28;20845;-61
2022/01/05 11:14:43;;;;;;;9.53;6.20;;;;;;;4.64;78.82;99071.22;5074988;28;20517;-61
2022/01/05 11:17:09;;;;;;;9.93;7.43;;;;;;;4.88;78.61;99065.38;5062820;28;20184;-62
2022/01/05 11:19:36;;;;;;;6.77;5.60;;;;;;;4.48;80.19;99061.63;5065004;28;20415;-62
2022/01/05 11:22:10;;;;;;;9.07;6.00;;;;;;;4.58;80.65;99067.75;5074403;28;20180;-60
2022/01/05 11:24:39;;;;;;;7.80;5.60;;;;;;;4.31;80.69;99066.69;5074890;28;20422;-62
2022/01/05 11:27:07;;;;;;;6.30;5.67;;;;;;;4.58;80.78;99068.59;5062908;28;20453;-65
2022/01/05 11:29:33;;;;;;;8.03;6.17;;;;;;;4.47;80.79;99070.25;5077422;28;20846;-63
2022/01/05 11:32:00;;;;;;;10.57;6.70;;;;;;;4.52;80.65;99073.75;5077255;28;20408;-63
2022/01/05 11:34:28;;;;;;;9.90;6.53;;;;;;;4.40;81.09;99077.09;5077270;28;20469;-63
2022/01/05 11:36:53;;;;;;;9.73;6.60;;;;;;;4.59;81.80;99084.94;5077669;28;20480;-62